Time;durP1;ratioP1;P1;durP2;ratioP2;P2;SDS_P1;SDS_P2;PMS_P1;PMS_P2;Temp;Humidity;BMP_temperature;BMP_pressure;BME280_temperature;BME280_humidity;BME280_pressure;Samples;Min_cycle;Max_cycle;Signal;HPM_P1;HPM_P2
2022/12/25 00:01:39;;;;;;;25.60;7.38;;;;;;;7.63;100.00;101275.88;5043701;28;20037;-68
2022/12/25 00:04:04;;;;;;;27.33;7.45;;;;;;;7.64;100.00;101279.41;5047912;28;20707;-67
2022/12/25 00:06:30;;;;;;;22.55;6.90;;;;;;;7.65;100.00;101273.13;5041033;28;20032;-67
2022/12/25 00:08:55;;;;;;;26.75;7.15;;;;;;;7.67;100.00;101276.56;5052808;28;20113;-68
2022/12/25 00:11:21;;;;;;;32.42;8.23;;;;;;;7.68;100.00;101267.59;5053081;28;20029;-67
2022/12/25 00:13:47;;;;;;;27.02;8.00;;;;;;;7.69;100.00;101266.66;5054578;28;20116;-69
2022/12/25 00:16:16;;;;;;;22.83;6.22;;;;;;;7.71;100.00;101272.78;5057559;28;20017;-68
2022/12/25 00:18:42;;;;;;;27.50;7.68;;;;;;;7.72;100.00;101273.63;5060313;28;20055;-67
2022/12/25 00:21:07;;;;;;;22.65;6.70;;;;;;;7.73;100.00;101268.22;5047995;28;20030;-68
2022/12/25 00:23:33;;;;;;;23.60;6.95;;;;;;;7.75;100.00;101268.13;5049887;28;20046;-67
2022/12/25 00:26:02;;;;;;;24.88;7.10;;;;;;;7.75;100.00;101277.00;5046425;28;20036;-67
2022/12/25 00:28:27;;;;;;;23.67;8.75;;;;;;;7.76;100.00;101270.72;5057873;28;20082;-67
2022/12/25 00:30:52;;;;;;;19.73;6.55;;;;;;;7.77;100.00;101274.25;5047768;28;20033;-68
2022/12/25 00:33:18;;;;;;;25.40;7.10;;;;;;;7.78;100.00;101271.50;5048260;28;20025;-66
2022/12/25 00:35:43;;;;;;;35.63;7.70;;;;;;;7.79;100.00;101267.88;5041292;28;20033;-67
2022/12/25 00:38:09;;;;;;;29.80;7.25;;;;;;;7.81;100.00;101265.97;5045447;28;20029;-68
2022/12/25 00:40:42;;;;;;;27.30;8.10;;;;;;;7.81;100.00;101268.66;5040760;28;20519;-67
2022/12/25 00:43:07;;;;;;;26.55;7.25;;;;;;;7.84;100.00;101263.13;5051628;28;20464;-67
2022/12/25 00:45:33;;;;;;;22.13;7.82;;;;;;;7.85;100.00;101262.19;5052157;28;20028;-67
2022/12/25 00:47:58;;;;;;;19.92;6.93;;;;;;;7.86;100.00;101261.25;5055988;28;20056;-67
2022/12/25 00:50:23;;;;;;;24.92;8.00;;;;;;;7.90;100.00;101269.09;5054529;28;20029;-67
2022/12/25 00:52:48;;;;;;;27.50;8.60;;;;;;;7.90;100.00;101275.31;5044698;28;20530;-67
2022/12/25 00:55:14;;;;;;;22.77;7.43;;;;;;;7.90;100.00;101269.94;5056834;28;20033;-67
2022/12/25 00:57:39;;;;;;;25.38;7.72;;;;;;;7.90;100.00;101256.56;5054477;28;20040;-67
2022/12/25 01:00:05;;;;;;;25.20;8.13;;;;;;;7.92;100.00;101257.38;5041568;28;20117;-67
2022/12/25 01:02:30;;;;;;;25.45;7.85;;;;;;;7.92;100.00;101248.44;5045933;28;20083;-67
2022/12/25 01:04:56;;;;;;;22.63;7.28;;;;;;;7.93;100.00;101260.91;5059164;28;20491;-67
2022/12/25 01:07:24;;;;;;;20.17;7.63;;;;;;;7.95;100.00;101249.16;5060115;28;20028;-67
2022/12/25 01:10:22;;;;;;;23.70;7.40;;;;;;;7.96;100.00;101252.69;5044851;28;20045;-67
2022/12/25 01:12:42;;;;;;;23.00;8.15;;;;;;;7.98;100.00;101243.63;5041678;28;20043;-67
2022/12/25 01:15:09;;;;;;;21.30;6.93;;;;;;;7.99;100.00;101245.34;5060944;28;20029;-68
2022/12/25 01:17:35;;;;;;;24.98;8.00;;;;;;;8.00;100.00;101243.53;5053734;28;20117;-67
2022/12/25 01:20:00;;;;;;;22.27;6.40;;;;;;;8.01;100.00;101253.31;5047130;28;20453;-67
2022/12/25 01:22:26;;;;;;;22.45;8.07;;;;;;;8.03;100.00;101248.72;5041467;28;20026;-69
2022/12/25 01:24:51;;;;;;;23.02;7.57;;;;;;;8.05;100.00;101241.47;5046684;28;20032;-67
2022/12/25 01:27:16;;;;;;;26.85;8.70;;;;;;;8.05;100.00;101247.69;5048112;28;20112;-67
2022/12/25 01:29:42;;;;;;;23.27;7.85;;;;;;;8.09;100.00;101258.22;5040879;28;20029;-68
2022/12/25 01:32:07;;;;;;;24.08;7.57;;;;;;;8.07;100.00;101266.34;5055324;28;20107;-67
2022/12/25 01:34:32;;;;;;;25.80;8.18;;;;;;;8.10;100.00;101268.00;5054602;28;20056;-67
2022/12/25 01:36:58;;;;;;;25.80;6.82;;;;;;;8.10;100.00;101268.84;5041057;28;20021;-67
2022/12/25 01:39:23;;;;;;;20.70;7.90;;;;;;;8.12;100.00;101274.13;5049567;28;20036;-67
2022/12/25 01:41:48;;;;;;;22.85;7.18;;;;;;;8.12;100.00;101271.44;5054646;28;20497;-67
2022/12/25 01:44:13;;;;;;;22.30;7.72;;;;;;;8.14;100.00;101266.84;5047900;28;20052;-68
2022/12/25 01:46:40;;;;;;;24.27;7.93;;;;;;;8.12;100.00;101272.28;5040604;28;20519;-67
2022/12/25 01:49:15;;;;;;;26.55;7.85;;;;;;;8.14;100.00;101283.78;5040095;28;20120;-67
2022/12/25 01:51:46;;;;;;;24.00;7.88;;;;;;;8.14;100.00;101283.78;5046496;28;20037;-67
2022/12/25 01:54:16;;;;;;;29.10;8.80;;;;;;;8.16;100.00;101291.75;5054426;28;20025;-67
2022/12/25 01:56:42;;;;;;;22.20;7.43;;;;;;;8.16;100.00;101292.59;5043614;28;20036;-67
2022/12/25 01:59:10;;;;;;;28.27;8.35;;;;;;;8.17;100.00;101293.44;5046816;28;20025;-67
2022/12/25 02:01:35;;;;;;;22.98;7.35;;;;;;;8.17;100.00;101293.44;5054926;28;20082;-67
2022/12/25 02:04:11;;;;;;;22.65;7.75;;;;;;;8.17;100.00;101298.78;5049880;28;20033;-67
2022/12/25 02:06:36;;;;;;;23.10;7.30;;;;;;;8.17;100.00;101294.31;5048004;28;20032;-67
2022/12/25 02:09:03;;;;;;;23.48;7.93;;;;;;;8.18;100.00;101300.53;5043793;28;20025;-67
2022/12/25 02:14:12;;;;;;;22.27;7.53;;;;;;;8.19;100.00;101302.28;5044173;28;20128;-67
2022/12/25 02:16:40;;;;;;;26.70;8.35;;;;;;;8.18;100.00;101305.88;5044592;28;20048;-69
2022/12/25 02:19:37;;;;;;;22.65;7.50;;;;;;;8.20;100.00;101301.34;5049845;28;20500;-67
2022/12/25 02:22:25;;;;;;;22.65;7.85;;;;;;;8.21;100.00;101305.72;5045656;28;20061;-67
2022/12/25 02:24:58;;;;;;;23.35;7.78;;;;;;;8.21;100.00;101305.72;5039129;28;20033;-67
2022/12/25 02:27:44;;;;;;;20.65;6.88;;;;;;;8.22;100.00;101299.41;5039551;28;20060;-68
2022/12/25 02:30:10;;;;;;;20.42;6.72;;;;;;;8.20;100.00;101302.19;5047565;28;20088;-67
2022/12/25 02:32:46;;;;;;;21.27;6.93;;;;;;;8.18;100.00;101301.38;5050223;28;20029;-67
2022/12/25 02:35:26;;;;;;;20.58;7.55;;;;;;;8.20;100.00;101298.66;5046555;28;20097;-67
2022/12/25 02:38:01;;;;;;;23.65;8.32;;;;;;;8.20;100.00;101288.78;5043392;28;20036;-68
2022/12/25 02:40:35;;;;;;;23.42;8.50;;;;;;;8.21;100.00;101284.28;5048463;28;20020;-68
2022/12/25 03:08:52;;;;;;;22.80;6.78;;;;;;;8.17;100.00;101242.56;5051514;28;20369;-67
2022/12/25 03:11:29;;;;;;;25.40;7.65;;;;;;;8.12;100.00;101241.97;5045956;28;20049;-67
2022/12/25 03:16:49;;;;;;;23.88;7.93;;;;;;;8.09;100.00;101218.91;5040045;28;20094;-67
2022/12/25 03:16:49;;;;;;;23.65;7.65;;;;;;;8.06;100.00;101216.41;5047912;28;20071;-68
2022/12/25 03:27:32;;;;;;;23.40;6.55;;;;;;;7.90;100.00;101205.72;5042932;28;20055;-67
2022/12/25 03:32:50;;;;;;;19.90;6.53;;;;;;;7.81;100.00;101192.88;5046586;28;20119;-68
2022/12/25 03:35:29;;;;;;;20.77;5.93;;;;;;;7.77;100.00;101193.97;5045065;28;20036;-67
2022/12/25 04:37:13;;;;;;;16.15;4.65;;;;;;;7.62;100.00;101182.34;5056754;28;20055;-67
2022/12/25 04:39:39;;;;;;;15.02;4.45;;;;;;;7.65;100.00;101182.16;5060594;28;20036;-67
2022/12/25 04:42:04;;;;;;;14.45;4.65;;;;;;;7.67;100.00;101191.84;5046601;28;20073;-67
2022/12/25 04:44:29;;;;;;;18.13;4.78;;;;;;;7.69;100.00;101192.59;5045631;28;20025;-67
2022/12/25 04:46:55;;;;;;;17.45;4.78;;;;;;;7.70;100.00;101180.97;5057055;28;20033;-68
2022/12/25 04:49:20;;;;;;;16.27;4.22;;;;;;;7.73;100.00;101177.25;5041480;28;20037;-68
2022/12/25 04:51:45;;;;;;;13.38;4.18;;;;;;;7.73;100.00;101176.38;5047404;28;20028;-68
2022/12/25 04:54:11;;;;;;;14.60;3.70;;;;;;;7.70;100.00;101178.28;5040678;28;20052;-67
2022/12/25 04:56:36;;;;;;;14.35;4.47;;;;;;;7.69;100.00;101176.53;5050084;28;20070;-67
2022/12/25 04:59:01;;;;;;;17.58;4.53;;;;;;;7.69;100.00;101181.91;5058425;28;20032;-67
2022/12/25 05:01:27;;;;;;;12.45;3.85;;;;;;;7.67;100.00;101165.09;5050694;28;20048;-67
2022/12/25 05:03:52;;;;;;;12.10;3.75;;;;;;;7.64;100.00;101165.25;5054331;28;20029;-67
2022/12/25 05:06:17;;;;;;;13.48;3.85;;;;;;;7.64;100.00;101167.94;5042168;28;20029;-67
2022/12/25 05:08:42;;;;;;;10.85;3.65;;;;;;;7.64;100.00;101172.41;5044975;28;20040;-67
2022/12/25 05:11:11;;;;;;;12.38;3.75;;;;;;;7.65;100.00;101169.63;5054513;28;20102;-67
2022/12/25 05:13:36;;;;;;;12.73;4.15;;;;;;;7.67;100.00;101166.88;5041682;28;20477;-67
2022/12/25 05:16:07;;;;;;;13.45;3.38;;;;;;;7.70;100.00;101169.38;5045067;28;20028;-67
2022/12/25 05:18:32;;;;;;;13.73;3.70;;;;;;;7.73;100.00;101165.66;5041123;28;20378;-67
2022/12/25 05:20:57;;;;;;;15.57;4.00;;;;;;;7.76;100.00;101165.50;5053682;28;20055;-68
2022/12/25 05:23:23;;;;;;;11.70;3.58;;;;;;;7.79;100.00;101162.63;5058991;28;20535;-67
2022/12/25 05:25:48;;;;;;;12.60;3.60;;;;;;;7.81;100.00;101152.72;5059210;28;20037;-67
2022/12/25 05:28:13;;;;;;;12.30;3.97;;;;;;;7.83;100.00;101142.78;5047388;28;20053;-67
2022/12/25 05:30:39;;;;;;;18.08;3.60;;;;;;;7.84;100.00;101142.69;5059572;28;20021;-67
2022/12/25 05:33:04;;;;;;;16.98;4.10;;;;;;;7.87;100.00;101123.78;5055864;28;20032;-69
2022/12/25 05:35:30;;;;;;;15.07;3.67;;;;;;;7.90;100.00;101122.75;5055993;28;20182;-68
2022/12/25 05:37:55;;;;;;;15.93;3.63;;;;;;;7.91;100.00;101120.97;5042682;28;20465;-67
2022/12/25 05:40:21;;;;;;;13.45;3.28;;;;;;;7.94;100.00;101126.13;5051088;28;20028;-67
2022/12/25 05:42:46;;;;;;;10.65;3.42;;;;;;;7.95;100.00;101128.72;5046118;28;20053;-68
2022/12/25 05:45:11;;;;;;;11.77;3.28;;;;;;;7.98;100.00;101133.00;5044510;28;20033;-68
2022/12/25 05:47:37;;;;;;;9.90;2.78;;;;;;;7.99;100.00;101127.56;5047401;28;20033;-67
2022/12/25 05:50:03;;;;;;;13.75;3.58;;;;;;;8.00;100.00;101121.28;5058603;28;20477;-67
2022/12/25 05:52:33;;;;;;;10.88;3.10;;;;;;;8.02;100.00;101127.41;5055298;28;20021;-67
2022/12/25 05:54:59;;;;;;;12.27;3.28;;;;;;;8.03;100.00;101134.47;5043650;28;20491;-67
2022/12/25 05:57:27;;;;;;;9.32;2.72;;;;;;;8.05;100.00;101124.56;5043381;28;20390;-67
2022/12/25 05:59:52;;;;;;;16.75;3.22;;;;;;;8.08;100.00;101122.63;5047783;28;20100;-67
2022/12/25 06:02:17;;;;;;;11.85;3.40;;;;;;;8.09;100.00;101125.22;5044382;28;20028;-68
2022/12/25 06:04:43;;;;;;;11.75;3.20;;;;;;;8.11;100.00;101109.06;5047792;28;20033;-67
2022/12/25 06:07:08;;;;;;;11.07;3.22;;;;;;;8.12;100.00;101108.13;5052406;28;20037;-67
2022/12/25 06:09:33;;;;;;;11.85;3.15;;;;;;;8.13;100.00;101109.88;5043916;28;20037;-67
2022/12/25 06:11:58;;;;;;;12.38;3.00;;;;;;;8.14;100.00;101107.09;5048556;28;20060;-68
2022/12/25 06:14:24;;;;;;;9.80;2.95;;;;;;;8.16;100.00;101110.53;5056346;28;20086;-67
2022/12/25 06:16:51;;;;;;;14.30;3.85;;;;;;;8.17;100.00;101106.03;5045404;28;20055;-67
2022/12/25 06:19:17;;;;;;;14.23;3.55;;;;;;;8.18;100.00;101102.41;5055171;28;20028;-69
2022/12/25 06:21:42;;;;;;;9.93;2.65;;;;;;;8.18;100.00;101089.88;5041210;28;20026;-68
2022/12/25 06:24:07;;;;;;;10.15;2.58;;;;;;;8.19;100.00;101080.91;5059552;28;20075;-67
2022/12/25 06:26:33;;;;;;;14.52;3.55;;;;;;;8.23;100.00;101078.91;5039182;28;20141;-67
2022/12/25 06:28:58;;;;;;;9.25;3.15;;;;;;;8.23;100.00;101085.13;5041474;28;20048;-68
2022/12/25 06:31:23;;;;;;;14.48;3.53;;;;;;;8.24;100.00;101088.66;5051197;28;20021;-68
2022/12/25 06:33:48;;;;;;;8.52;2.75;;;;;;;8.26;100.00;101077.84;5040803;28;20053;-67
2022/12/25 06:36:17;;;;;;;10.63;3.35;;;;;;;8.26;100.00;101077.84;5039339;28;20018;-67
2022/12/25 06:38:42;;;;;;;10.98;3.30;;;;;;;8.25;100.00;101074.31;5048633;28;20033;-67
2022/12/25 06:41:19;;;;;;;10.45;2.90;;;;;;;8.27;100.00;101066.19;5043462;28;20049;-69
2022/12/25 06:43:49;;;;;;;16.10;3.63;;;;;;;8.25;100.00;101055.56;5059863;28;20059;-69
2022/12/25 06:46:14;;;;;;;10.23;3.13;;;;;;;8.27;100.00;101052.81;5057542;28;20448;-69
2022/12/25 06:48:48;;;;;;;8.73;2.88;;;;;;;8.28;100.00;101055.38;5041121;28;20065;-67
2022/12/25 06:51:14;;;;;;;13.52;3.40;;;;;;;8.28;100.00;101042.00;5059945;28;20035;-67
2022/12/25 06:53:39;;;;;;;12.15;2.97;;;;;;;8.29;100.00;101038.38;5044509;28;20029;-67
2022/12/25 06:56:07;;;;;;;12.20;3.55;;;;;;;8.28;100.00;101019.72;5058189;28;20362;-67
2022/12/25 06:58:32;;;;;;;11.30;3.33;;;;;;;8.28;100.00;101017.91;5048179;28;20028;-68
2022/12/25 07:00:58;;;;;;;17.10;3.78;;;;;;;8.28;100.00;101017.91;5061777;28;20036;-67
2022/12/25 07:03:27;;;;;;;11.52;3.47;;;;;;;8.28;100.00;101023.25;5062658;28;20028;-67
2022/12/25 07:05:52;;;;;;;12.95;3.40;;;;;;;8.30;100.00;101015.13;5050312;28;20044;-68
2022/12/25 07:08:17;;;;;;;7.78;3.10;;;;;;;8.31;100.00;101009.66;5058070;28;20377;-70
2022/12/25 07:10:43;;;;;;;13.40;3.47;;;;;;;8.32;100.00;101021.25;5062164;28;20097;-67
2022/12/25 07:13:08;;;;;;;16.33;4.20;;;;;;;8.33;100.00;101031.00;5047093;28;20481;-67
2022/12/25 07:15:33;;;;;;;12.57;3.42;;;;;;;8.34;100.00;101032.72;5062184;28;20029;-67
2022/12/25 07:17:59;;;;;;;12.68;3.53;;;;;;;8.32;100.00;101022.13;5050208;28;20056;-69
2022/12/25 07:20:24;;;;;;;7.72;2.55;;;;;;;8.34;100.00;101035.41;5052701;28;20093;-67
2022/12/25 07:22:49;;;;;;;14.75;3.72;;;;;;;8.36;100.00;101046.88;5044506;28;20034;-67
2022/12/25 07:25:15;;;;;;;13.63;3.40;;;;;;;8.34;100.00;101060.38;5043235;28;20423;-69
2022/12/25 07:27:40;;;;;;;15.45;3.47;;;;;;;8.36;100.00;101066.50;5047896;28;20042;-67
2022/12/25 07:30:06;;;;;;;13.98;3.20;;;;;;;8.36;100.00;101062.94;5057109;28;20025;-67
2022/12/25 07:32:31;;;;;;;14.32;3.75;;;;;;;8.36;100.00;101069.19;5063175;28;20035;-68
2022/12/25 07:34:57;;;;;;;11.95;3.40;;;;;;;8.35;100.00;101062.09;5062376;28;20029;-67
2022/12/25 07:37:22;;;;;;;9.45;2.90;;;;;;;8.36;100.00;101063.81;5056996;28;20017;-68
2022/12/25 07:39:47;;;;;;;14.70;3.42;;;;;;;8.35;100.00;101046.03;5047642;28;20060;-67
2022/12/25 07:42:13;;;;;;;11.85;3.10;;;;;;;8.36;100.00;101031.69;5058633;28;20097;-67
2022/12/25 07:44:38;;;;;;;10.55;3.05;;;;;;;8.35;100.00;101016.56;5043759;28;20033;-67
2022/12/25 07:47:03;;;;;;;14.27;3.30;;;;;;;8.36;100.00;101023.66;5042917;28;20037;-68
2022/12/25 07:49:29;;;;;;;12.45;3.75;;;;;;;8.34;100.00;101036.25;5042744;28;20021;-68
2022/12/25 07:51:54;;;;;;;10.70;3.22;;;;;;;8.32;100.00;101043.53;5045470;28;20036;-67
2022/12/25 07:54:19;;;;;;;11.88;3.47;;;;;;;8.35;100.00;101046.03;5060016;28;20036;-68
2022/12/25 07:56:45;;;;;;;8.68;2.90;;;;;;;8.36;100.00;101049.56;5042483;28;20061;-69
2022/12/25 07:59:10;;;;;;;13.63;3.10;;;;;;;8.35;100.00;101064.78;5043680;28;20037;-68
2022/12/25 08:01:35;;;;;;;12.90;3.40;;;;;;;8.36;100.00;101079.00;5056101;28;20511;-67
2022/12/25 08:04:01;;;;;;;9.70;2.92;;;;;;;8.36;100.00;101082.56;5054015;28;20037;-67
2022/12/25 08:06:32;;;;;;;11.18;3.30;;;;;;;8.37;100.00;101086.94;5050723;28;20033;-67
2022/12/25 08:09:07;;;;;;;10.05;3.22;;;;;;;8.36;100.00;101090.59;5043584;28;20116;-67
2022/12/25 08:11:32;;;;;;;13.38;3.92;;;;;;;8.35;100.00;101088.03;5055280;28;20100;-69
2022/12/25 08:13:58;;;;;;;14.93;3.35;;;;;;;8.35;100.00;101099.59;5048221;28;20442;-67
2022/12/25 08:16:23;;;;;;;10.30;2.97;;;;;;;8.34;100.00;101111.25;5057842;28;20112;-67
2022/12/25 08:18:49;;;;;;;14.10;2.97;;;;;;;8.35;100.00;101126.38;5056027;28;20072;-69
2022/12/25 08:21:15;;;;;;;9.57;2.92;;;;;;;8.35;100.00;101121.00;5056396;28;20029;-68
2022/12/25 08:23:42;;;;;;;16.52;5.10;;;;;;;8.33;100.00;101112.22;5052481;28;20048;-67
2022/12/25 08:26:11;;;;;;;18.90;6.30;;;;;;;8.34;100.00;101094.31;5055193;28;20029;-68
2022/12/25 08:28:36;;;;;;;20.23;5.45;;;;;;;8.34;100.00;101092.50;5057922;28;20025;-68
2022/12/25 08:31:16;;;;;;;20.65;6.28;;;;;;;8.34;100.00;101103.22;5047432;28;20029;-67
2022/12/25 08:33:42;;;;;;;23.75;10.40;;;;;;;8.35;100.00;101098.75;5052855;28;20029;-67
2022/12/25 08:36:10;;;;;;;21.67;7.88;;;;;;;8.35;100.00;101096.06;5052641;28;20751;-68
2022/12/25 08:38:35;;;;;;;16.85;5.35;;;;;;;8.36;100.00;101101.31;5043654;28;20025;-68
2022/12/25 08:41:01;;;;;;;19.70;6.43;;;;;;;8.38;100.00;101109.25;5044361;28;20051;-68
2022/12/25 08:43:26;;;;;;;18.77;6.03;;;;;;;8.39;100.00;101122.56;5040626;28;20565;-68
2022/12/25 08:45:51;;;;;;;18.85;5.30;;;;;;;8.39;100.00;101117.19;5041693;28;20045;-67
2022/12/25 08:48:17;;;;;;;14.95;4.30;;;;;;;8.39;100.00;101109.16;5050982;28;20075;-67
2022/12/25 08:50:49;;;;;;;18.98;5.72;;;;;;;8.40;100.00;101108.22;5044682;28;20032;-67
2022/12/25 08:53:15;;;;;;;15.35;4.25;;;;;;;8.38;100.00;101104.75;5044779;28;20029;-67
2022/12/25 08:55:40;;;;;;;15.25;4.25;;;;;;;8.37;100.00;101097.66;5057127;28;20037;-67
2022/12/25 08:58:06;;;;;;;15.38;4.63;;;;;;;8.38;100.00;101099.41;5050006;28;20025;-67
2022/12/25 09:00:31;;;;;;;15.73;4.68;;;;;;;8.36;100.00;101095.97;5051372;28;20021;-67
2022/12/25 09:02:56;;;;;;;15.50;5.03;;;;;;;8.36;100.00;101093.28;5050821;28;20052;-67
2022/12/25 09:05:22;;;;;;;19.98;7.53;;;;;;;8.36;100.00;101076.34;5058309;28;20576;-68
2022/12/25 09:07:47;;;;;;;24.77;9.88;;;;;;;8.36;100.00;101076.34;5053533;28;20079;-67
2022/12/25 09:10:12;;;;;;;21.30;9.00;;;;;;;8.36;100.00;101079.91;5053923;28;20036;-67
2022/12/25 09:12:38;;;;;;;24.70;10.93;;;;;;;8.37;100.00;101068.22;5057750;28;20060;-68
2022/12/25 09:15:04;;;;;;;21.33;7.90;;;;;;;8.37;100.00;101086.94;5046311;28;20454;-71
2022/12/25 09:17:29;;;;;;;13.82;4.07;;;;;;;8.38;100.00;101094.03;5042858;28;20028;-66
2022/12/25 09:19:54;;;;;;;13.32;3.50;;;;;;;8.41;100.00;101093.00;5053137;28;20033;-68
2022/12/25 09:22:20;;;;;;;15.48;4.10;;;;;;;8.43;100.00;101106.31;5041881;28;20370;-68
2022/12/25 09:24:45;;;;;;;14.40;3.75;;;;;;;8.44;100.00;101102.69;5048391;28;20033;-68
2022/12/25 09:27:10;;;;;;;15.32;4.10;;;;;;;8.43;100.00;101098.25;5051412;28;20029;-67
2022/12/25 09:29:37;;;;;;;13.43;3.75;;;;;;;8.42;100.00;101093.84;5062618;28;20021;-67
2022/12/25 09:32:03;;;;;;;12.25;4.05;;;;;;;8.43;100.00;101088.41;5057468;28;20021;-67
2022/12/25 09:34:28;;;;;;;15.93;4.07;;;;;;;8.42;100.00;101081.34;5059001;28;20043;-67
2022/12/25 09:36:53;;;;;;;14.20;4.32;;;;;;;8.39;100.00;101071.66;5060222;28;20025;-68
2022/12/25 09:39:19;;;;;;;14.13;3.85;;;;;;;8.38;100.00;101050.34;5046558;28;20023;-69
2022/12/25 09:42:08;;;;;;;16.17;3.95;;;;;;;8.40;100.00;101065.38;5054577;28;20100;-68
2022/12/25 09:44:39;;;;;;;9.80;3.60;;;;;;;8.38;100.00;101069.94;5046045;28;21266;-72
2022/12/25 09:47:14;;;;;;;12.88;3.70;;;;;;;8.38;100.00;101067.25;5038338;28;20064;-67
2022/12/25 09:49:51;;;;;;;13.95;4.30;;;;;;;8.38;100.00;101069.09;5040545;28;20041;-68
2022/12/25 09:52:21;;;;;;;13.52;4.22;;;;;;;8.39;100.00;101065.47;5041065;28;20035;-68
2022/12/25 09:55:07;;;;;;;12.52;3.70;;;;;;;8.40;100.00;101046.63;5040536;28;20025;-68
2022/12/25 09:57:32;;;;;;;16.52;4.75;;;;;;;8.40;100.00;101049.31;5044663;28;20431;-68
2022/12/25 09:59:57;;;;;;;15.40;4.38;;;;;;;8.42;100.00;101051.00;5043581;28;20063;-69
2022/12/25 10:02:45;;;;;;;16.80;4.20;;;;;;;8.39;100.00;101050.25;5045073;28;20029;-68
2022/12/25 10:05:11;;;;;;;14.65;3.88;;;;;;;8.43;100.00;101034.84;5045663;28;20033;-69
2022/12/25 10:07:48;;;;;;;13.40;3.88;;;;;;;8.43;100.00;101028.63;5044325;28;20026;-68
2022/12/25 10:10:27;;;;;;;14.65;4.57;;;;;;;8.41;100.00;101028.72;5047716;28;20040;-68
2022/12/25 10:13:01;;;;;;;17.95;4.40;;;;;;;8.44;100.00;101030.34;5053506;28;20071;-69
2022/12/25 10:15:32;;;;;;;15.20;4.35;;;;;;;8.44;100.00;101022.31;5052937;28;20025;-68
2022/12/25 10:18:09;;;;;;;15.75;4.60;;;;;;;8.46;100.00;101021.28;5045360;28;20025;-72
2022/12/25 10:20:40;;;;;;;14.38;4.40;;;;;;;8.48;100.00;101034.63;5052809;28;20044;-70
2022/12/25 10:23:14;;;;;;;12.88;4.60;;;;;;;8.49;100.00;101025.59;5047446;28;20440;-70
2022/12/25 10:25:40;;;;;;;17.55;5.18;;;;;;;8.48;100.00;101019.38;5042016;28;20040;-73
2022/12/25 10:28:17;;;;;;;12.00;3.85;;;;;;;8.50;100.00;101016.63;5050940;28;20041;-68
2022/12/25 10:30:43;;;;;;;13.20;4.40;;;;;;;8.49;100.00;101012.22;5051043;28;20033;-69
2022/12/25 10:33:12;;;;;;;15.70;5.40;;;;;;;8.51;100.00;101026.38;5046971;28;20025;-71
2022/12/25 10:35:38;;;;;;;21.77;5.55;;;;;;;8.50;100.00;101021.97;5048302;28;20072;-69
2022/12/25 10:38:15;;;;;;;28.67;12.18;;;;;;;8.52;100.00;101022.72;5049146;28;20116;-69
2022/12/25 10:41:08;;;;;;;40.33;17.92;;;;;;;8.51;100.00;101024.56;5047404;28;20044;-69
2022/12/25 10:43:45;;;;;;;25.10;8.73;;;;;;;8.51;100.00;101026.38;5046049;28;20045;-69
2022/12/25 10:46:13;;;;;;;19.10;6.75;;;;;;;8.50;100.00;101011.25;5049368;28;20028;-69
2022/12/25 10:49:02;;;;;;;22.17;7.97;;;;;;;8.52;100.00;101010.22;5050142;28;20025;-69
2022/12/25 10:51:36;;;;;;;18.48;7.45;;;;;;;8.49;100.00;100993.44;5042495;28;20045;-69
2022/12/25 10:54:16;;;;;;;22.08;10.45;;;;;;;8.48;100.00;100986.41;5051148;28;20061;-69
2022/12/25 10:56:50;;;;;;;;;;;;;;;8.55;100.00;100971.63;5050275;28;20029;-70
2022/12/25 10:59:15;;;;;;;;;;;;;;;8.56;100.00;100974.25;5045385;28;19912;-69
2022/12/25 11:01:41;;;;;;;;;;;;;;;8.57;100.00;100973.25;5045881;28;19991;-68
2022/12/25 11:04:16;;;;;;;;;;;;;;;8.61;100.00;100973.06;5057349;28;19916;-69
2022/12/25 11:06:41;;;;;;;;;;;;;;;8.62;100.00;100981.00;5062189;28;20292;-70
2022/12/25 11:09:14;;;;;;;;;;;;;;;8.63;100.00;100984.56;5048689;28;19920;-69
2022/12/25 11:11:40;;;;;;;;;;;;;;;8.65;100.00;100988.84;5046285;28;19939;-70
2022/12/25 11:14:13;;;;;;;;;;;;;;;8.66;100.00;100969.16;5045640;28;19913;-70
2022/12/25 11:16:39;;;;;;;;;;;;;;;8.68;100.00;100959.22;5047462;28;19916;-68
2022/12/25 11:19:22;;;;;;;;;;;;;;;8.70;100.00;100953.75;5046184;28;19920;-68
2022/12/25 11:21:52;;;;;;;;;;;;;;;8.72;100.00;100946.47;5044214;28;19913;-70
2022/12/25 11:24:19;;;;;;;;;;;;;;;8.73;100.00;100943.69;5048568;28;19909;-69
2022/12/25 11:26:47;;;;;;;;;;;;;;;8.76;100.00;100933.75;5065871;28;19939;-69
2022/12/25 11:29:35;;;;;;;;;;;;;;;8.74;100.00;100921.28;5065653;28;19932;-69
2022/12/25 11:32:01;;;;;;;;;;;;;;;8.76;100.00;100915.00;5043502;28;20030;-69
2022/12/25 11:34:26;;;;;;;;;;;;;;;8.77;100.00;100924.72;5047933;28;19913;-69
2022/12/25 11:36:52;;;;;;;;;;;;;;;8.78;100.00;100918.41;5045573;28;20323;-69
2022/12/25 11:39:21;;;;;;;;;;;;;;;8.78;100.00;100921.09;5049620;28;19913;-70
2022/12/25 11:41:47;;;;;;;;;;;;;;;8.77;100.00;100912.22;5061836;28;19921;-67
2022/12/25 11:44:38;;;;;;;;;;;;;;;8.79;100.00;100904.06;5045567;28;19913;-69
2022/12/25 11:47:13;;;;;;;;;;;;;;;8.78;100.00;100905.00;5043449;28;20435;-67
2022/12/25 11:49:42;;;;;;;;;;;;;;;8.78;100.00;100896.97;5044167;28;19913;-69
2022/12/25 11:52:10;;;;;;;;;;;;;;;8.76;100.00;100889.03;5044289;28;20034;-71
2022/12/25 11:54:41;;;;;;;;;;;;;;;8.74;100.00;100891.81;5050264;28;19921;-68
2022/12/25 11:57:10;;;;;;;;;;;;;;;8.73;100.00;100889.25;5057920;28;19928;-69
2022/12/25 11:59:51;;;;;;;;;;;;;;;8.72;100.00;100885.69;5047852;28;20319;-68
2022/12/25 12:02:16;;;;;;;;;;;;;;;8.71;100.00;100891.16;5053241;28;19967;-68
2022/12/25 12:04:43;;;;;;;;;;;;;;;8.71;100.00;100889.34;5064906;28;19909;-68
2022/12/25 12:07:23;;;;;;;;;;;;;;;8.72;100.00;100893.72;5046614;28;19920;-68
2022/12/25 12:10:01;;;;;;;;;;;;;;;8.73;100.00;100891.91;5045930;28;19920;-68
2022/12/25 12:12:45;;;;;;;;;;;;;;;8.74;100.00;100897.19;5047289;28;19916;-70
2022/12/25 12:15:49;;;;;;;;;;;;;;;8.76;100.00;100893.56;5047379;28;19971;-67
2022/12/25 12:18:26;;;;;;;;;;;;;;;8.77;100.00;100889.88;5035110;28;19920;-70
2022/12/25 12:20:58;;;;;;;;;;;;;;;8.76;100.00;100885.50;5035774;28;19920;-67
2022/12/25 12:23:24;;;;;;;;;;;;;;;8.76;100.00;100872.13;5030980;28;19920;-68
2022/12/25 12:25:50;;;;;;;;;;;;;;;8.77;100.00;100888.09;5040494;28;19992;-68
2022/12/25 12:28:22;;;;;;;;;;;;;;;8.77;100.00;100868.44;5031625;28;19917;-69
2022/12/25 12:30:58;;;;;;;;;;;;;;;8.78;100.00;100870.19;5037641;28;20296;-68
2022/12/25 12:33:26;;;;;;;;;;;;;;;8.77;100.00;100865.78;5032823;28;20422;-69
2022/12/25 12:35:51;;;;;;;;;;;;;;;8.78;100.00;100859.47;5040078;28;19909;-68
2022/12/25 12:38:19;;;;;;;;;;;;;;;8.79;100.00;100847.78;5037299;28;19917;-68
2022/12/25 12:40:50;;;;;;;;;;;;;;;8.82;100.00;100844.91;5034224;28;19920;-68
2022/12/25 12:43:27;;;;;;;;;;;;;;;8.84;100.00;100849.19;5035905;28;19967;-68
2022/12/25 12:45:54;;;;;;;;;;;;;;;8.86;100.00;100857.16;5037839;28;19936;-69
2022/12/25 12:48:27;;;;;;;;;;;;;;;8.85;100.00;100855.41;5043142;28;19916;-68
2022/12/25 12:51:09;;;;;;;;;;;;;;;8.86;100.00;100846.44;5060787;28;19919;-69
2022/12/25 12:53:35;;;;;;;;;;;;;;;8.87;100.00;100853.47;5046188;28;19913;-69
2022/12/25 12:56:11;;;;;;;;;;;;;;;8.88;100.00;100852.53;5048979;28;19917;-68
2022/12/25 12:58:39;;;;;;;;;;;;;;;8.90;100.00;100850.59;5048655;28;19921;-70
2022/12/25 13:01:04;;;;;;;;;;;;;;;8.91;100.00;100846.97;5043845;28;20048;-70
2022/12/25 13:03:48;;;;;;;;;;;;;;;8.92;100.00;100846.84;5045038;28;19956;-69
2022/12/25 13:06:16;;;;;;;;;;;;;;;8.92;100.00;100835.28;5048832;28;19912;-69
2022/12/25 13:08:44;;;;;;;;;;;;;;;8.92;100.00;100838.81;5052733;28;19917;-69
2022/12/25 13:11:12;;;;;;;;;;;;;;;8.92;100.00;100824.56;5051197;28;19985;-70
2022/12/25 13:13:39;;;;;;;;;;;;;;;8.94;100.00;100821.78;5052606;28;20317;-69
2022/12/25 13:16:05;;;;;;;;;;;;;;;8.95;100.00;100804.75;5048524;28;19953;-69
2022/12/25 13:18:31;;;;;;;;;;;;;;;8.95;100.00;100804.75;5048944;28;19944;-69